createdAt,value
2022-12-25T00:00:04.726Z,17.45
2022-12-25T00:02:34.449Z,16.48
2022-12-25T00:05:02.821Z,20.63
2022-12-25T00:07:31.136Z,21.65
2022-12-25T00:09:59.372Z,14.93
2022-12-25T00:12:27.562Z,16.23
2022-12-25T00:14:55.752Z,16.48
2022-12-25T00:17:23.928Z,19.10
2022-12-25T00:19:53.768Z,20.77
2022-12-25T00:22:21.916Z,26.15
2022-12-25T00:24:50.430Z,20.88
2022-12-25T00:27:18.881Z,25.02
2022-12-25T00:29:46.984Z,31.30
2022-12-25T00:32:15.163Z,23.58
2022-12-25T00:34:43.348Z,36.00
2022-12-25T00:37:13.972Z,27.33
2022-12-25T00:39:42.156Z,20.55
2022-12-25T00:42:20.383Z,23.63
2022-12-25T00:44:49.456Z,21.63
2022-12-25T00:47:19.781Z,21.48
2022-12-25T00:49:48.178Z,21.75
2022-12-25T00:52:17.708Z,22.38
2022-12-25T00:54:45.979Z,23.83
2022-12-25T00:57:14.287Z,28.77
2022-12-25T00:59:42.792Z,16.55
2022-12-25T01:02:26.390Z,23.02
2022-12-25T01:04:56.732Z,27.30
2022-12-25T01:07:27.676Z,17.55
2022-12-25T01:10:14.603Z,23.00
2022-12-25T01:12:44.599Z,29.23
2022-12-25T01:15:13.827Z,29.25
2022-12-25T01:17:42.856Z,21.08
2022-12-25T01:20:12.573Z,26.67
2022-12-25T01:22:42.727Z,31.70
2022-12-25T01:25:11.957Z,17.27
2022-12-25T01:27:40.571Z,25.45
2022-12-25T01:30:09.922Z,26.90
2022-12-25T01:32:38.531Z,20.10
2022-12-25T01:35:07.637Z,19.30
2022-12-25T01:37:35.818Z,27.65
2022-12-25T01:40:06.426Z,19.75
2022-12-25T01:42:34.676Z,10.97
2022-12-25T01:45:31.959Z,25.27
2022-12-25T01:48:00.459Z,14.43
2022-12-25T01:50:29.721Z,18.42
2022-12-25T01:52:58.851Z,14.00
2022-12-25T01:55:29.292Z,30.13
2022-12-25T01:57:58.143Z,13.05
2022-12-25T02:00:26.230Z,21.30
2022-12-25T02:02:54.760Z,23.40
2022-12-25T02:05:28.314Z,18.73
2022-12-25T02:07:57.976Z,17.00
2022-12-25T02:10:26.211Z,21.67
2022-12-25T02:12:55.959Z,19.45
2022-12-25T02:15:31.567Z,14.25
2022-12-25T02:18:08.727Z,16.75
2022-12-25T02:20:48.128Z,22.23
2022-12-25T02:23:45.347Z,24.75
2022-12-25T02:26:26.605Z,27.75
2022-12-25T02:29:02.859Z,13.02
2022-12-25T02:31:39.365Z,19.95
2022-12-25T02:34:15.177Z,24.35
2022-12-25T02:36:48.938Z,20.02
2022-12-25T02:39:41.907Z,18.85
2022-12-25T02:42:14.850Z,22.92
2022-12-25T02:45:11.669Z,18.45
2022-12-25T02:47:57.788Z,15.68
2022-12-25T02:50:44.778Z,21.38
2022-12-25T02:53:31.279Z,20.48
2022-12-25T02:56:18.143Z,27.75
2022-12-25T02:59:05.139Z,28.20
2022-12-25T03:01:56.418Z,23.60
2022-12-25T03:04:45.461Z,20.13
2022-12-25T03:07:17.869Z,21.20
2022-12-25T03:10:10.698Z,20.65
2022-12-25T03:12:48.046Z,22.08
2022-12-25T03:15:35.090Z,14.13
2022-12-25T03:18:07.551Z,14.85
2022-12-25T03:20:53.505Z,15.25
2022-12-25T03:23:43.204Z,14.88
2022-12-25T03:26:28.739Z,11.18
2022-12-25T03:28:56.961Z,20.13
2022-12-25T03:31:32.459Z,15.85
2022-12-25T03:34:28.554Z,14.40
2022-12-25T03:37:22.391Z,18.70
2022-12-25T03:40:19.365Z,9.80
2022-12-25T03:43:11.777Z,13.00
2022-12-25T03:46:04.124Z,16.58
2022-12-25T03:48:53.121Z,12.07
2022-12-25T03:51:48.323Z,18.55
2022-12-25T03:54:37.946Z,13.25
2022-12-25T03:57:24.254Z,18.85
2022-12-25T04:00:09.474Z,16.63
2022-12-25T04:02:55.916Z,15.43
2022-12-25T04:05:41.723Z,16.00
2022-12-25T04:08:29.093Z,11.32
2022-12-25T04:11:14.484Z,20.10
2022-12-25T04:13:59.657Z,14.27
2022-12-25T04:16:41.558Z,8.43
2022-12-25T04:19:27.528Z,16.63
2022-12-25T04:22:13.253Z,18.00
2022-12-25T04:25:00.519Z,18.85
2022-12-25T04:27:45.655Z,13.50
2022-12-25T04:30:33.767Z,18.92
2022-12-25T04:33:19.418Z,18.85
2022-12-25T04:36:06.068Z,18.80
2022-12-25T04:38:34.496Z,23.15
2022-12-25T04:41:04.971Z,25.80
2022-12-25T04:43:33.366Z,16.60
2022-12-25T04:46:03.087Z,24.02
2022-12-25T04:48:34.521Z,20.88
2022-12-25T04:53:39.301Z,16.23
2022-12-25T04:56:09.081Z,21.77
2022-12-25T04:58:37.321Z,18.30
2022-12-25T05:01:06.479Z,20.83
2022-12-25T05:03:35.531Z,18.45
2022-12-25T05:06:05.185Z,17.70
2022-12-25T05:08:36.038Z,14.07
2022-12-25T05:11:10.065Z,14.73
2022-12-25T05:13:39.048Z,22.50
2022-12-25T05:16:08.916Z,24.17
2022-12-25T05:18:37.233Z,20.35
2022-12-25T05:21:06.116Z,18.35
2022-12-25T05:23:34.292Z,14.73
2022-12-25T05:26:05.475Z,24.15
2022-12-25T05:28:35.479Z,18.92
2022-12-25T05:31:04.066Z,20.10
2022-12-25T05:33:32.367Z,17.65
2022-12-25T05:36:04.246Z,13.02
2022-12-25T05:38:32.600Z,15.43
2022-12-25T05:41:01.217Z,19.67
2022-12-25T05:43:30.528Z,19.00
2022-12-25T05:46:00.104Z,24.60
2022-12-25T05:48:28.302Z,15.45
2022-12-25T05:50:56.424Z,22.58
2022-12-25T05:53:24.676Z,23.85
2022-12-25T05:55:53.662Z,16.30
2022-12-25T05:58:21.809Z,17.88
2022-12-25T06:00:50.123Z,18.38
2022-12-25T06:03:19.755Z,18.08
2022-12-25T06:05:48.068Z,13.30
2022-12-25T06:08:16.353Z,16.13
2022-12-25T06:10:44.539Z,21.50
2022-12-25T06:13:12.639Z,16.45
2022-12-25T06:15:41.220Z,17.75
2022-12-25T06:18:09.761Z,11.95
2022-12-25T06:20:42.071Z,13.18
2022-12-25T06:23:10.374Z,16.58
2022-12-25T06:25:40.395Z,14.23
2022-12-25T06:28:08.840Z,15.75
2022-12-25T06:30:37.066Z,22.75
2022-12-25T06:33:05.338Z,19.25
2022-12-25T06:35:33.652Z,19.27
2022-12-25T06:38:03.183Z,24.38
2022-12-25T06:40:31.387Z,21.48
2022-12-25T06:42:59.445Z,19.98
2022-12-25T06:45:27.655Z,20.23
2022-12-25T06:47:56.662Z,10.60
2022-12-25T06:50:24.852Z,18.92
2022-12-25T06:52:53.002Z,12.48
2022-12-25T06:55:22.473Z,19.00
2022-12-25T06:57:50.633Z,21.17
2022-12-25T07:00:19.164Z,15.93
2022-12-25T07:02:49.892Z,19.95
2022-12-25T07:05:18.329Z,25.10
2022-12-25T07:07:46.522Z,15.45
2022-12-25T07:10:14.623Z,16.67
2022-12-25T07:12:44.178Z,23.02
2022-12-25T07:15:12.499Z,19.25
2022-12-25T07:17:40.799Z,26.27
2022-12-25T07:20:10.067Z,17.05
2022-12-25T07:22:38.194Z,23.90
2022-12-25T07:25:07.334Z,23.35
2022-12-25T07:27:35.563Z,23.50
2022-12-25T07:30:05.613Z,22.67
2022-12-25T07:32:34.033Z,16.27
2022-12-25T07:35:02.236Z,15.25
2022-12-25T07:37:30.471Z,19.77
2022-12-25T07:39:58.626Z,25.40
2022-12-25T07:42:26.724Z,14.15
2022-12-25T07:44:54.761Z,12.48
2022-12-25T07:47:24.331Z,17.05
2022-12-25T07:49:52.617Z,17.88
2022-12-25T07:52:20.887Z,22.13
2022-12-25T07:54:49.171Z,21.50
2022-12-25T07:57:17.725Z,20.58
2022-12-25T07:59:45.925Z,16.65
2022-12-25T08:02:14.432Z,25.73
2022-12-25T08:04:44.734Z,21.35
2022-12-25T08:07:12.858Z,20.02
2022-12-25T08:09:41.031Z,27.13
2022-12-25T08:12:09.115Z,25.60
2022-12-25T08:14:37.319Z,23.92
2022-12-25T08:17:05.625Z,16.10
2022-12-25T08:19:34.065Z,17.80
2022-12-25T08:22:03.640Z,18.75
2022-12-25T08:24:31.930Z,18.60
2022-12-25T08:27:00.177Z,18.17
2022-12-25T08:29:29.055Z,12.82
2022-12-25T08:31:57.304Z,21.25
2022-12-25T08:34:25.420Z,16.63
2022-12-25T08:36:53.629Z,26.08
2022-12-25T08:39:23.316Z,17.08
2022-12-25T08:41:51.445Z,16.88
2022-12-25T08:44:19.788Z,17.60
2022-12-25T08:46:47.877Z,21.00
2022-12-25T08:49:16.519Z,24.20
2022-12-25T08:51:45.885Z,21.98
2022-12-25T08:54:14.125Z,31.55
2022-12-25T08:56:43.777Z,24.50
2022-12-25T08:59:11.998Z,16.70
2022-12-25T09:01:40.277Z,19.00
2022-12-25T09:04:08.440Z,14.07
2022-12-25T09:06:36.644Z,20.67
2022-12-25T09:09:05.006Z,27.05
2022-12-25T09:11:33.166Z,18.48
2022-12-25T09:14:03.014Z,21.38
2022-12-25T09:16:31.213Z,18.52
2022-12-25T09:18:59.419Z,31.45
2022-12-25T09:21:27.558Z,15.70
2022-12-25T09:23:55.810Z,22.58
2022-12-25T09:26:24.321Z,19.77
2022-12-25T09:28:52.960Z,27.33
2022-12-25T09:31:23.977Z,21.58
2022-12-25T09:33:53.054Z,20.85
2022-12-25T09:36:23.518Z,24.35
2022-12-25T09:38:51.974Z,27.13
2022-12-25T09:41:26.116Z,26.77
2022-12-25T09:44:00.932Z,21.20
2022-12-25T09:46:38.171Z,21.38
2022-12-25T09:49:14.763Z,18.48
2022-12-25T09:51:47.089Z,20.30
2022-12-25T09:54:22.191Z,23.50
2022-12-25T09:56:50.592Z,12.05
2022-12-25T09:59:24.323Z,26.08
2022-12-25T10:02:15.976Z,20.33
2022-12-25T10:04:58.866Z,22.40
2022-12-25T10:07:38.035Z,20.40
2022-12-25T10:10:25.390Z,13.55
2022-12-25T10:13:05.452Z,13.13
2022-12-25T10:15:41.824Z,16.17
2022-12-25T10:18:38.209Z,13.13
2022-12-25T10:21:13.231Z,12.35
2022-12-25T10:23:44.465Z,10.23
2022-12-25T10:26:16.938Z,10.80
2022-12-25T10:28:47.048Z,9.55
2022-12-25T10:31:22.296Z,13.43
2022-12-25T10:33:55.123Z,6.45
2022-12-25T10:36:26.230Z,11.23
2022-12-25T10:38:55.264Z,4.50
2022-12-25T10:41:38.834Z,9.00
2022-12-25T10:44:15.402Z,18.98
2022-12-25T10:46:49.426Z,7.82
2022-12-25T10:49:22.376Z,7.18
2022-12-25T10:51:51.250Z,10.05
2022-12-25T10:54:23.105Z,10.40
2022-12-25T10:56:56.366Z,8.18
2022-12-25T10:59:25.340Z,10.57
2022-12-25T11:01:55.389Z,8.45
2022-12-25T11:04:28.633Z,16.33
2022-12-25T11:06:59.052Z,13.65
2022-12-25T11:09:27.343Z,10.25
2022-12-25T11:11:55.730Z,7.95
2022-12-25T11:14:34.903Z,5.68
2022-12-25T11:17:10.108Z,11.88
2022-12-25T11:19:39.584Z,9.50
2022-12-25T11:22:19.814Z,8.18
2022-12-25T11:24:47.994Z,8.68
2022-12-25T11:27:26.310Z,6.95
2022-12-25T11:29:59.364Z,7.35
2022-12-25T11:32:31.682Z,12.18
2022-12-25T11:35:02.984Z,13.73
2022-12-25T11:37:36.604Z,8.00
2022-12-25T11:40:05.927Z,12.52
2022-12-25T11:42:37.950Z,10.63
2022-12-25T11:45:12.668Z,10.38
2022-12-25T11:47:46.297Z,15.45
2022-12-25T11:50:23.686Z,12.95
2022-12-25T11:52:54.362Z,11.25
2022-12-25T11:55:30.684Z,17.40
2022-12-25T11:58:04.591Z,17.08
2022-12-25T12:00:36.538Z,12.40
2022-12-25T12:03:12.108Z,16.52
2022-12-25T12:05:46.558Z,13.02
2022-12-25T12:08:15.705Z,15.48
2022-12-25T12:11:16.108Z,12.88
2022-12-25T12:14:05.412Z,9.40
2022-12-25T12:16:33.969Z,15.15
2022-12-25T12:19:12.837Z,16.50
2022-12-25T12:21:44.292Z,13.98
2022-12-25T12:24:17.782Z,13.40
2022-12-25T12:26:47.693Z,16.15
2022-12-25T12:29:26.550Z,12.82
2022-12-25T12:31:58.635Z,19.48
2022-12-25T12:34:29.523Z,15.38
2022-12-25T12:37:02.973Z,17.33
2022-12-25T12:39:36.595Z,10.32
2022-12-25T12:42:15.145Z,11.10
2022-12-25T12:44:44.087Z,9.93
2022-12-25T12:47:29.072Z,18.33
2022-12-25T12:50:00.154Z,25.17
2022-12-25T12:52:37.755Z,9.38
2022-12-25T12:55:09.558Z,11.77
2022-12-25T12:57:40.494Z,9.35
2022-12-25T13:00:16.237Z,8.10
2022-12-25T13:03:10.345Z,15.38
2022-12-25T13:05:42.065Z,16.77
2022-12-25T13:08:34.908Z,11.50
2022-12-25T13:11:16.852Z,16.23
2022-12-25T13:13:46.849Z,14.85
2022-12-25T13:16:23.169Z,12.43
2022-12-25T13:18:53.123Z,9.90
2022-12-25T13:21:27.945Z,10.55
2022-12-25T13:24:02.682Z,15.48
2022-12-25T13:26:32.133Z,16.98
2022-12-25T13:29:00.396Z,14.93
2022-12-25T13:31:30.744Z,8.65
2022-12-25T13:34:03.730Z,8.50
2022-12-25T13:36:37.488Z,10.90
2022-12-25T13:39:10.281Z,12.50
2022-12-25T13:42:02.999Z,6.45
2022-12-25T13:44:37.388Z,12.88
2022-12-25T13:47:16.827Z,6.65
2022-12-25T13:49:46.174Z,9.57
2022-12-25T13:52:16.909Z,9.73
2022-12-25T13:54:57.567Z,9.30
2022-12-25T13:57:30.220Z,13.23
2022-12-25T13:59:59.050Z,8.32
2022-12-25T14:02:32.658Z,10.90
2022-12-25T14:05:00.839Z,9.10
2022-12-25T14:07:29.178Z,11.90
2022-12-25T14:10:02.859Z,9.15
2022-12-25T14:12:32.975Z,13.77
2022-12-25T14:15:02.358Z,10.55
2022-12-25T14:17:30.751Z,11.63
2022-12-25T14:20:06.000Z,10.70
2022-12-25T14:22:37.934Z,13.93
2022-12-25T14:25:15.687Z,21.33
2022-12-25T14:27:50.176Z,14.93
2022-12-25T14:30:19.568Z,11.63
2022-12-25T14:32:52.081Z,10.38
2022-12-25T14:35:23.749Z,19.65
2022-12-25T14:37:57.208Z,16.05
2022-12-25T14:40:31.932Z,14.60
2022-12-25T14:43:01.465Z,12.50
2022-12-25T14:45:32.279Z,13.13
2022-12-25T14:48:03.214Z,10.00
2022-12-25T14:50:37.445Z,15.82
2022-12-25T14:53:07.462Z,10.35
2022-12-25T14:55:38.458Z,17.55
2022-12-25T14:58:08.309Z,14.38
2022-12-25T15:00:39.118Z,11.10
2022-12-25T15:03:18.716Z,10.65
2022-12-25T15:05:46.846Z,7.70
2022-12-25T15:08:26.112Z,12.52
2022-12-25T15:11:00.673Z,8.27
2022-12-25T15:13:30.785Z,12.77
2022-12-25T15:16:03.199Z,12.25
2022-12-25T15:18:36.358Z,18.67
2022-12-25T15:21:04.706Z,13.27
2022-12-25T15:23:32.875Z,15.32
2022-12-25T15:26:02.361Z,14.43
2022-12-25T15:28:30.486Z,14.70
2022-12-25T15:30:58.827Z,15.10
2022-12-25T15:33:27.090Z,22.92
2022-12-25T15:35:55.264Z,6.78
2022-12-25T15:38:23.430Z,12.00
2022-12-25T15:40:51.582Z,10.95
2022-12-25T15:43:40.111Z,14.98
2022-12-25T15:46:10.595Z,20.27
2022-12-25T15:48:38.798Z,22.70
2022-12-25T15:51:07.230Z,19.08
2022-12-25T15:53:35.759Z,25.30
2022-12-25T15:56:04.053Z,11.85
2022-12-25T15:58:33.607Z,17.08
2022-12-25T16:01:01.921Z,11.38
2022-12-25T16:03:30.165Z,24.75
2022-12-25T16:05:58.407Z,12.98
2022-12-25T16:08:26.521Z,14.00
2022-12-25T16:10:54.963Z,16.27
2022-12-25T16:13:23.493Z,14.77
2022-12-25T16:15:53.137Z,14.05
2022-12-25T16:18:21.449Z,16.83
2022-12-25T16:20:49.602Z,20.33
2022-12-25T16:23:17.897Z,15.15
2022-12-25T16:25:46.076Z,16.80
2022-12-25T16:28:14.326Z,22.63
2022-12-25T16:30:43.318Z,13.57
2022-12-25T16:33:13.080Z,14.73
2022-12-25T16:35:41.320Z,10.45
2022-12-25T16:38:09.538Z,18.05
2022-12-25T16:40:37.665Z,17.05
2022-12-25T16:43:05.946Z,22.48
2022-12-25T16:45:39.612Z,19.65
2022-12-25T16:48:08.748Z,21.90
2022-12-25T16:50:41.281Z,13.77
2022-12-25T16:53:09.934Z,24.15
2022-12-25T16:55:38.875Z,15.40
2022-12-25T16:58:07.805Z,18.02
2022-12-25T17:00:36.096Z,12.30
2022-12-25T17:03:04.432Z,11.60
2022-12-25T17:05:34.577Z,12.07
2022-12-25T17:08:04.067Z,12.60
2022-12-25T17:10:32.630Z,6.72
2022-12-25T17:13:00.869Z,13.30
2022-12-25T17:15:31.595Z,15.88
2022-12-25T17:17:59.776Z,19.33
2022-12-25T17:20:28.125Z,16.60
2022-12-25T17:22:57.757Z,11.90
2022-12-25T17:25:27.275Z,16.08
2022-12-25T17:27:55.356Z,13.85
2022-12-25T17:30:23.865Z,22.52
2022-12-25T17:32:52.046Z,39.30
2022-12-25T17:35:21.468Z,17.27
2022-12-25T17:37:49.739Z,11.50
2022-12-25T17:40:17.974Z,7.10
2022-12-25T17:42:47.653Z,18.88
2022-12-25T17:45:16.017Z,16.85
2022-12-25T17:47:44.201Z,18.65
2022-12-25T17:50:12.423Z,12.05
2022-12-25T17:52:40.606Z,12.63
2022-12-25T17:55:09.609Z,14.57
2022-12-25T17:57:37.779Z,12.48
2022-12-25T18:00:10.320Z,16.63
2022-12-25T18:02:40.151Z,13.52
2022-12-25T18:05:10.004Z,17.88
2022-12-25T18:07:38.510Z,13.27
2022-12-25T18:10:07.966Z,18.60
2022-12-25T18:12:36.222Z,19.45
2022-12-25T18:15:04.638Z,15.57
2022-12-25T18:17:34.151Z,15.52
2022-12-25T18:20:02.708Z,18.05
2022-12-25T18:22:30.995Z,13.90
2022-12-25T18:24:59.317Z,13.13
2022-12-25T18:27:27.495Z,16.58
2022-12-25T18:29:55.684Z,15.77
2022-12-25T18:32:28.038Z,15.77
2022-12-25T18:34:58.071Z,9.82
2022-12-25T18:37:26.757Z,9.95
2022-12-25T18:39:54.950Z,4.45
2022-12-25T18:42:41.434Z,3.30
2022-12-25T18:45:12.413Z,2.55
2022-12-25T18:47:40.520Z,3.33
2022-12-25T18:50:11.220Z,7.80
2022-12-25T18:52:49.404Z,3.27
2022-12-25T18:55:19.893Z,3.15
2022-12-25T18:57:48.527Z,6.30
2022-12-25T19:00:17.231Z,8.68
2022-12-25T19:02:45.700Z,2.92
2022-12-25T19:05:15.513Z,1.30
2022-12-25T19:07:43.789Z,1.50
2022-12-25T19:10:11.881Z,2.63
2022-12-25T19:12:40.018Z,2.85
2022-12-25T19:15:09.193Z,8.68
2022-12-25T19:17:38.551Z,1.83
2022-12-25T19:20:07.617Z,1.83
2022-12-25T19:22:37.310Z,2.67
2022-12-25T19:25:06.333Z,2.72
2022-12-25T19:27:34.669Z,1.70
2022-12-25T19:30:02.764Z,1.50
2022-12-25T19:32:32.611Z,1.45
2022-12-25T19:35:04.566Z,0.93
2022-12-25T19:37:32.933Z,1.38
2022-12-25T19:40:02.488Z,0.75
2022-12-25T19:42:30.771Z,1.10
2022-12-25T19:44:58.993Z,1.70
2022-12-25T19:47:27.256Z,1.25
2022-12-25T19:50:00.851Z,4.07
2022-12-25T19:52:30.782Z,2.15
2022-12-25T19:54:59.095Z,3.28
2022-12-25T19:57:28.701Z,3.22
2022-12-25T19:59:56.957Z,8.38
2022-12-25T20:02:25.117Z,7.70
2022-12-25T20:04:53.485Z,4.82
2022-12-25T20:07:21.733Z,2.42
2022-12-25T20:09:49.959Z,3.28
2022-12-25T20:12:18.124Z,1.58
2022-12-25T20:14:48.397Z,3.17
2022-12-25T20:17:16.770Z,8.98
2022-12-25T20:19:45.106Z,6.82
2022-12-25T20:22:13.271Z,6.47
2022-12-25T20:24:41.360Z,20.50
2022-12-25T20:27:09.580Z,7.00
2022-12-25T20:29:37.992Z,3.13
2022-12-25T20:32:07.744Z,2.80
2022-12-25T20:34:36.000Z,4.30
2022-12-25T20:37:04.895Z,3.75
2022-12-25T20:39:33.181Z,7.32
2022-12-25T20:42:01.376Z,5.72
2022-12-25T20:44:29.490Z,3.15
2022-12-25T20:47:01.235Z,2.20
2022-12-25T20:49:32.722Z,2.05
2022-12-25T20:52:05.266Z,1.85
2022-12-25T20:54:34.596Z,2.22
2022-12-25T20:57:02.774Z,6.60
2022-12-25T20:59:37.165Z,6.50
2022-12-25T21:02:06.396Z,5.85
2022-12-25T21:04:36.086Z,4.28
2022-12-25T21:07:05.290Z,5.35
2022-12-25T21:09:34.523Z,5.22
2022-12-25T21:12:03.015Z,4.47
2022-12-25T21:14:31.293Z,2.53
2022-12-25T21:16:59.701Z,3.58
2022-12-25T21:19:27.794Z,5.70
2022-12-25T21:21:57.410Z,3.78
2022-12-25T21:24:25.638Z,3.25
2022-12-25T21:26:53.803Z,5.05
2022-12-25T21:29:23.170Z,6.53
2022-12-25T21:32:08.345Z,7.20
2022-12-25T21:34:36.810Z,10.23
2022-12-25T21:37:06.364Z,9.25
2022-12-25T21:39:35.085Z,8.43
2022-12-25T21:42:04.782Z,4.10
2022-12-25T21:44:32.967Z,7.22
2022-12-25T21:47:01.180Z,7.88
2022-12-25T21:49:48.790Z,8.85
2022-12-25T21:52:18.601Z,5.55
2022-12-25T21:54:47.026Z,5.32
2022-12-25T21:57:15.250Z,6.88
2022-12-25T21:59:43.397Z,5.82
2022-12-25T22:02:12.370Z,7.53
2022-12-25T22:04:40.890Z,7.50
2022-12-25T22:07:18.579Z,7.50
2022-12-25T22:09:50.324Z,6.75
2022-12-25T22:12:49.340Z,7.82
2022-12-25T22:15:17.664Z,12.07
2022-12-25T22:18:03.016Z,8.25
2022-12-25T22:20:34.896Z,6.55
2022-12-25T22:23:03.596Z,5.15
2022-12-25T22:25:33.312Z,10.82
2022-12-25T22:28:01.460Z,10.98
2022-12-25T22:30:30.898Z,12.05
2022-12-25T22:32:59.412Z,7.72
2022-12-25T22:35:27.614Z,8.93
2022-12-25T22:37:56.122Z,11.23
2022-12-25T22:40:24.528Z,12.95
2022-12-25T22:42:56.838Z,14.80
2022-12-25T22:45:25.646Z,9.32
2022-12-25T22:47:53.815Z,12.77
2022-12-25T22:50:22.163Z,8.07
2022-12-25T22:52:50.327Z,6.05
2022-12-25T22:55:22.739Z,11.90
2022-12-25T22:57:52.179Z,7.78
2022-12-25T23:00:21.781Z,7.75
2022-12-25T23:02:50.300Z,6.60
2022-12-25T23:05:19.171Z,11.57
2022-12-25T23:07:47.252Z,7.25
2022-12-25T23:10:15.361Z,5.07
2022-12-25T23:13:01.098Z,8.23
2022-12-25T23:15:31.679Z,8.77
2022-12-25T23:18:17.448Z,6.33
2022-12-25T23:21:03.381Z,8.48
2022-12-25T23:23:49.000Z,10.27
2022-12-25T23:26:19.082Z,17.02
2022-12-25T23:29:04.833Z,7.88
2022-12-25T23:31:36.678Z,6.82
2022-12-25T23:34:05.942Z,10.95
2022-12-25T23:36:34.575Z,8.25
2022-12-25T23:39:09.731Z,4.63
2022-12-25T23:41:39.207Z,15.15
2022-12-25T23:44:07.705Z,3.95
2022-12-25T23:46:37.650Z,5.25
2022-12-25T23:49:06.581Z,6.35
2022-12-25T23:51:36.621Z,6.38
2022-12-25T23:54:05.193Z,8.73
2022-12-25T23:56:33.456Z,8.60
2022-12-25T23:59:01.709Z,14.65
